createdAt,value
2023-05-17T00:00:17.112Z,10.63
2023-05-17T00:02:46.578Z,14.07
2023-05-17T00:05:13.613Z,12.70
2023-05-17T00:07:43.039Z,12.47
2023-05-17T00:10:12.649Z,11.83
2023-05-17T00:12:39.502Z,13.80
2023-05-17T00:15:09.079Z,10.30
2023-05-17T00:17:38.089Z,12.27
2023-05-17T00:20:05.957Z,12.13
2023-05-17T00:22:32.806Z,11.63
2023-05-17T00:24:59.764Z,9.87
2023-05-17T00:27:28.753Z,10.37
2023-05-17T00:29:55.621Z,11.27
2023-05-17T00:32:22.484Z,11.53
2023-05-17T00:34:49.346Z,13.07
2023-05-17T00:37:16.241Z,15.63
2023-05-17T00:39:45.357Z,12.20
2023-05-17T00:42:12.456Z,16.27
2023-05-17T00:44:39.266Z,12.40
2023-05-17T00:47:06.221Z,17.10
2023-05-17T00:49:33.065Z,16.37
2023-05-17T00:51:59.867Z,14.47
2023-05-17T00:54:28.839Z,15.33
2023-05-17T00:56:57.807Z,14.33
2023-05-17T00:59:24.680Z,16.27
2023-05-17T01:01:51.700Z,15.80
2023-05-17T01:04:18.997Z,17.17
2023-05-17T01:06:46.059Z,15.47
2023-05-17T01:09:12.934Z,14.60
2023-05-17T01:11:47.413Z,13.33
2023-05-17T01:14:38.038Z,18.60
2023-05-17T01:17:07.205Z,14.17
2023-05-17T01:19:52.924Z,14.40
2023-05-17T01:22:28.708Z,15.40
2023-05-17T01:25:11.697Z,15.70
2023-05-17T01:27:39.966Z,15.53
2023-05-17T01:30:09.815Z,19.77
2023-05-17T01:32:40.801Z,16.60
2023-05-17T01:35:08.174Z,16.00
2023-05-17T01:37:34.970Z,19.30
2023-05-17T01:40:01.804Z,17.03
2023-05-17T01:42:34.415Z,18.73
2023-05-17T01:45:07.820Z,19.67
2023-05-17T01:48:06.641Z,15.30
2023-05-17T01:50:36.359Z,15.50
2023-05-17T01:53:19.256Z,17.37
2023-05-17T01:55:54.372Z,16.43
2023-05-17T01:58:23.000Z,21.13
2023-05-17T02:00:49.983Z,18.13
2023-05-17T02:03:20.741Z,17.50
2023-05-17T02:05:47.710Z,17.00
2023-05-17T02:08:14.623Z,20.63
2023-05-17T02:10:41.402Z,16.50
2023-05-17T02:13:08.248Z,18.27
2023-05-17T02:15:35.051Z,19.90
2023-05-17T02:18:02.058Z,16.67
2023-05-17T02:20:28.985Z,17.07
2023-05-17T02:22:55.846Z,17.27
2023-05-17T02:25:22.670Z,16.13
2023-05-17T02:27:54.099Z,16.00
2023-05-17T02:30:23.239Z,15.73
2023-05-17T02:32:51.468Z,16.17
2023-05-17T02:35:18.442Z,17.90
2023-05-17T02:37:45.417Z,15.13
2023-05-17T02:40:12.586Z,15.90
2023-05-17T02:42:39.405Z,19.57
2023-05-17T02:45:06.728Z,15.90
2023-05-17T02:47:33.710Z,18.30
2023-05-17T02:50:01.139Z,15.97
2023-05-17T02:52:28.038Z,14.37
2023-05-17T02:54:54.947Z,14.37
2023-05-17T02:57:22.165Z,21.30
2023-05-17T02:59:49.463Z,18.87
2023-05-17T03:02:16.381Z,14.70
2023-05-17T03:04:43.426Z,15.47
2023-05-17T03:07:12.812Z,17.37
2023-05-17T03:09:39.711Z,15.13
2023-05-17T03:12:09.588Z,15.73
2023-05-17T03:14:36.363Z,17.27
2023-05-17T03:17:03.291Z,15.17
2023-05-17T03:19:32.364Z,17.67
2023-05-17T03:21:59.332Z,13.63
2023-05-17T03:24:26.337Z,14.33
2023-05-17T03:26:53.225Z,15.23
2023-05-17T03:29:22.151Z,15.13
2023-05-17T03:31:51.373Z,12.30
2023-05-17T03:34:18.217Z,18.87
2023-05-17T03:36:45.388Z,14.83
2023-05-17T03:39:12.169Z,11.97
2023-05-17T03:41:42.238Z,14.17
2023-05-17T03:44:09.105Z,14.60
2023-05-17T03:46:35.945Z,12.40
2023-05-17T03:49:03.107Z,13.30
2023-05-17T03:51:29.904Z,16.27
2023-05-17T03:54:00.513Z,13.30
2023-05-17T03:56:27.441Z,11.90
2023-05-17T03:58:54.368Z,14.53
2023-05-17T04:01:21.210Z,13.23
2023-05-17T04:03:49.269Z,13.70
2023-05-17T04:06:16.164Z,12.83
2023-05-17T04:08:43.113Z,12.07
2023-05-17T04:11:15.696Z,13.50
2023-05-17T04:13:42.685Z,12.33
2023-05-17T04:16:12.048Z,13.33
2023-05-17T04:18:39.244Z,12.80
2023-05-17T04:21:08.576Z,14.40
2023-05-17T04:23:37.778Z,15.37
2023-05-17T04:26:06.147Z,12.10
2023-05-17T04:28:35.244Z,11.70
2023-05-17T04:31:02.656Z,13.30
2023-05-17T04:33:29.914Z,12.40
2023-05-17T04:35:59.677Z,11.90
2023-05-17T04:38:27.032Z,12.13
2023-05-17T04:41:06.706Z,14.33
2023-05-17T04:43:34.046Z,11.83
2023-05-17T04:46:00.938Z,10.87
2023-05-17T04:48:32.080Z,11.70
2023-05-17T04:51:07.705Z,10.93
2023-05-17T04:53:34.599Z,11.00
2023-05-17T04:56:04.211Z,13.50
2023-05-17T04:58:33.297Z,11.37
2023-05-17T05:01:00.234Z,11.70
2023-05-17T05:03:27.431Z,12.03
2023-05-17T05:05:54.311Z,10.83
2023-05-17T05:08:21.399Z,9.33
2023-05-17T05:10:53.133Z,10.67
2023-05-17T05:13:19.973Z,11.97
2023-05-17T05:15:47.270Z,12.27
2023-05-17T05:18:14.570Z,27.50
2023-05-17T05:20:41.399Z,11.33
2023-05-17T05:23:08.305Z,11.83
2023-05-17T05:25:37.840Z,9.67
2023-05-17T05:28:07.777Z,9.63
2023-05-17T05:30:34.634Z,12.20
2023-05-17T05:33:01.597Z,9.77
2023-05-17T05:35:31.998Z,9.23
2023-05-17T05:37:59.528Z,8.60
2023-05-17T05:40:26.934Z,20.07
2023-05-17T05:42:54.376Z,11.90
2023-05-17T05:45:25.281Z,10.70
2023-05-17T05:47:52.581Z,20.50
2023-05-17T05:50:19.941Z,10.37
2023-05-17T05:52:49.354Z,8.17
2023-05-17T05:55:18.814Z,9.03
2023-05-17T05:57:48.927Z,8.13
2023-05-17T06:00:18.023Z,8.67
2023-05-17T06:02:45.734Z,12.90
2023-05-17T06:05:12.654Z,7.43
2023-05-17T06:07:39.422Z,6.93
2023-05-17T06:10:06.863Z,7.70
2023-05-17T06:12:36.051Z,9.67
2023-05-17T06:15:07.389Z,8.37
2023-05-17T06:17:34.166Z,10.30
2023-05-17T06:20:01.124Z,6.93
2023-05-17T06:22:28.028Z,7.00
2023-05-17T06:24:56.991Z,7.40
2023-05-17T06:27:23.818Z,12.20
2023-05-17T06:29:51.120Z,8.03
2023-05-17T06:32:20.064Z,6.80
2023-05-17T06:34:46.859Z,6.00
2023-05-17T06:37:13.726Z,8.90
2023-05-17T06:39:41.134Z,7.27
2023-05-17T06:42:07.998Z,7.50
2023-05-17T06:44:34.869Z,6.70
2023-05-17T06:47:04.190Z,8.50
2023-05-17T06:49:31.107Z,7.70
2023-05-17T06:52:03.047Z,8.20
2023-05-17T06:54:37.175Z,6.60
2023-05-17T06:57:04.275Z,7.23
2023-05-17T06:59:31.299Z,7.70
2023-05-17T07:02:00.229Z,6.30
2023-05-17T07:04:29.459Z,6.83
2023-05-17T07:06:56.711Z,7.63
2023-05-17T07:09:23.602Z,6.23
2023-05-17T07:11:50.434Z,8.13
2023-05-17T07:14:19.657Z,7.40
2023-05-17T07:16:47.989Z,11.63
2023-05-17T07:19:19.210Z,7.03
2023-05-17T07:21:46.158Z,7.33
2023-05-17T07:24:13.445Z,6.40
2023-05-17T07:26:40.293Z,7.30
2023-05-17T07:29:07.569Z,11.67
2023-05-17T07:31:34.765Z,7.67
2023-05-17T07:34:02.059Z,5.80
2023-05-17T07:36:30.844Z,8.87
2023-05-17T07:38:58.145Z,6.67
2023-05-17T07:41:26.049Z,7.87
2023-05-17T07:43:52.852Z,6.70
2023-05-17T07:46:24.303Z,7.43
2023-05-17T07:48:51.389Z,6.40
2023-05-17T07:51:18.422Z,6.83
2023-05-17T07:53:50.783Z,9.23
2023-05-17T07:56:17.672Z,6.50
2023-05-17T07:58:44.548Z,9.37
2023-05-17T08:01:13.848Z,6.60
2023-05-17T08:03:48.150Z,6.10
2023-05-17T08:06:16.167Z,8.20
2023-05-17T08:08:43.184Z,5.37
2023-05-17T08:11:10.814Z,6.67
2023-05-17T08:13:37.951Z,6.37
2023-05-17T08:16:13.470Z,11.20
2023-05-17T08:18:42.277Z,10.10
2023-05-17T08:21:09.837Z,8.63
2023-05-17T08:23:36.842Z,8.93
2023-05-17T08:26:06.153Z,12.33
2023-05-17T08:28:32.981Z,9.17
2023-05-17T08:31:02.237Z,7.97
2023-05-17T08:33:29.213Z,7.13
2023-05-17T08:35:57.856Z,8.73
2023-05-17T08:38:24.660Z,12.50
2023-05-17T08:41:00.365Z,6.83
2023-05-17T08:43:27.944Z,7.10
2023-05-17T08:45:58.046Z,5.70
2023-05-17T08:48:31.322Z,5.10
2023-05-17T08:51:01.491Z,5.20
2023-05-17T08:53:28.430Z,5.63
2023-05-17T08:55:59.253Z,5.90
2023-05-17T08:58:30.005Z,5.80
2023-05-17T09:00:58.402Z,8.47
2023-05-17T09:03:25.614Z,5.40
2023-05-17T09:05:53.701Z,7.23
2023-05-17T09:08:21.826Z,5.00
2023-05-17T09:10:48.974Z,5.30
2023-05-17T09:13:18.182Z,5.03
2023-05-17T09:15:45.769Z,5.20
2023-05-17T09:18:12.901Z,5.23
2023-05-17T09:20:39.960Z,5.03
2023-05-17T09:23:09.771Z,7.93
2023-05-17T09:25:37.327Z,6.20
2023-05-17T09:28:13.508Z,7.80
2023-05-17T09:30:41.944Z,6.60
2023-05-17T09:33:10.059Z,6.47
2023-05-17T09:35:37.373Z,8.97
2023-05-17T09:38:06.960Z,10.00
2023-05-17T09:40:34.055Z,7.10
2023-05-17T09:43:02.109Z,7.43
2023-05-17T09:45:31.357Z,7.17
2023-05-17T09:47:59.812Z,7.03
2023-05-17T09:50:26.992Z,6.97
2023-05-17T09:52:53.839Z,6.93
2023-05-17T09:55:27.866Z,6.93
2023-05-17T09:57:55.278Z,7.93
2023-05-17T10:00:22.242Z,8.40
2023-05-17T10:02:49.270Z,8.10
2023-05-17T10:05:16.225Z,9.13
2023-05-17T10:07:43.119Z,10.30
2023-05-17T10:10:10.523Z,13.20
2023-05-17T10:12:39.236Z,14.03
2023-05-17T10:15:06.583Z,10.90
2023-05-17T10:17:36.026Z,9.37
2023-05-17T10:20:10.487Z,9.70
2023-05-17T10:22:37.879Z,9.47
2023-05-17T10:25:07.261Z,11.70
2023-05-17T10:27:36.284Z,12.97
2023-05-17T10:30:03.311Z,13.87
2023-05-17T10:32:32.760Z,13.87
2023-05-17T10:35:10.576Z,12.27
2023-05-17T10:37:39.928Z,17.60
2023-05-17T10:40:07.771Z,19.87
2023-05-17T10:42:34.560Z,15.27
2023-05-17T10:45:01.693Z,16.07
2023-05-17T10:47:35.567Z,19.20
2023-05-17T10:50:03.417Z,15.53
2023-05-17T10:52:30.224Z,13.90
2023-05-17T10:54:59.478Z,17.27
2023-05-17T10:57:49.928Z,18.77
2023-05-17T11:00:21.455Z,17.33
2023-05-17T11:02:49.168Z,18.17
2023-05-17T11:05:27.258Z,15.73
2023-05-17T11:08:18.189Z,16.53
2023-05-17T11:11:14.118Z,17.47
2023-05-17T11:13:54.393Z,17.33
2023-05-17T11:16:22.424Z,16.33
2023-05-17T11:18:53.609Z,14.27
2023-05-17T11:21:24.007Z,18.53
2023-05-17T11:23:56.736Z,17.37
2023-05-17T11:26:30.108Z,13.60
2023-05-17T11:29:12.993Z,16.20
2023-05-17T11:31:46.902Z,11.90
2023-05-17T11:34:14.183Z,18.00
2023-05-17T11:36:54.599Z,13.50
2023-05-17T11:39:27.052Z,17.10
2023-05-17T11:41:59.323Z,16.10
2023-05-17T11:44:35.463Z,11.33
2023-05-17T11:47:06.394Z,14.87
2023-05-17T11:49:37.221Z,10.80
2023-05-17T11:52:06.249Z,15.67
2023-05-17T11:54:35.854Z,10.23
2023-05-17T11:58:06.071Z,14.67
2023-05-17T12:05:40.321Z,10.33
2023-05-17T12:29:00.061Z,15.03
2023-05-17T12:31:36.854Z,17.03
2023-05-17T12:38:28.571Z,13.80
2023-05-17T13:36:09.146Z,12.70
2023-05-17T13:55:03.489Z,16.37
2023-05-17T13:57:30.409Z,18.33
2023-05-17T13:59:59.486Z,16.00
2023-05-17T14:02:26.578Z,16.20
2023-05-17T14:04:53.579Z,18.57
2023-05-17T14:07:25.084Z,15.53
2023-05-17T14:09:51.869Z,14.77
2023-05-17T14:12:21.253Z,14.23
2023-05-17T14:14:48.063Z,16.80
2023-05-17T14:17:14.876Z,13.77
2023-05-17T14:19:44.373Z,13.60
2023-05-17T14:22:14.968Z,20.17
2023-05-17T14:24:41.849Z,19.67
2023-05-17T14:27:08.695Z,14.63
2023-05-17T14:29:35.991Z,23.17
2023-05-17T14:32:05.021Z,18.47
2023-05-17T14:34:39.028Z,10.93
2023-05-17T14:37:08.612Z,15.33
2023-05-17T14:39:35.802Z,20.50
2023-05-17T14:42:02.759Z,19.03
2023-05-17T14:44:29.983Z,14.30
2023-05-17T14:46:56.808Z,15.03
2023-05-17T14:49:23.651Z,16.63
2023-05-17T14:51:50.737Z,17.70
2023-05-17T14:54:20.688Z,19.93
2023-05-17T14:56:47.547Z,12.90
2023-05-17T14:59:14.309Z,19.03
2023-05-17T15:01:41.275Z,16.60
2023-05-17T15:04:09.644Z,17.97
2023-05-17T15:06:36.597Z,17.00
2023-05-17T15:09:04.080Z,19.17
2023-05-17T15:11:33.770Z,14.97
2023-05-17T15:14:00.944Z,17.63
2023-05-17T15:16:30.023Z,15.77
2023-05-17T15:18:57.733Z,13.63
2023-05-17T15:21:27.129Z,15.53
2023-05-17T15:23:54.116Z,15.80
2023-05-17T15:26:21.769Z,14.43
2023-05-17T15:28:51.131Z,11.07
2023-05-17T15:31:18.433Z,11.60
2023-05-17T15:33:45.424Z,13.63
2023-05-17T15:36:13.266Z,13.23
2023-05-17T15:38:40.089Z,19.97
2023-05-17T15:41:10.004Z,14.47
2023-05-17T15:43:38.910Z,13.53
2023-05-17T15:46:10.817Z,10.60
2023-05-17T15:48:37.748Z,15.77
2023-05-17T15:51:07.363Z,12.13
2023-05-17T15:53:34.777Z,12.07
2023-05-17T15:56:06.547Z,10.53
2023-05-17T15:58:34.113Z,11.80
2023-05-17T16:01:06.623Z,14.13
2023-05-17T16:03:33.756Z,11.20
2023-05-17T16:06:05.404Z,16.33
2023-05-17T16:08:34.735Z,14.70
2023-05-17T16:11:04.114Z,11.70
2023-05-17T16:13:31.196Z,15.13
2023-05-17T16:16:01.741Z,15.60
2023-05-17T16:18:31.902Z,12.37
2023-05-17T16:21:02.690Z,15.57
2023-05-17T16:23:32.644Z,15.20
2023-05-17T16:25:59.514Z,13.20
2023-05-17T16:28:26.493Z,14.90
2023-05-17T16:30:53.396Z,15.07
2023-05-17T16:33:20.657Z,14.37
2023-05-17T16:35:50.620Z,11.83
2023-05-17T16:38:17.659Z,15.83
2023-05-17T16:40:44.500Z,10.93
2023-05-17T16:43:16.472Z,13.60
2023-05-17T16:45:46.929Z,10.70
2023-05-17T16:48:14.395Z,11.33
2023-05-17T16:50:44.060Z,11.67
2023-05-17T16:53:10.919Z,13.17
2023-05-17T16:55:37.809Z,12.17
2023-05-17T16:58:07.828Z,16.37
2023-05-17T17:00:34.908Z,11.67
2023-05-17T17:03:01.865Z,13.97
2023-05-17T17:05:29.017Z,15.13
2023-05-17T17:07:56.970Z,11.70
2023-05-17T17:10:23.810Z,11.97
2023-05-17T17:12:50.916Z,7.93
2023-05-17T17:15:18.187Z,13.03
2023-05-17T17:17:47.785Z,12.43
2023-05-17T17:20:16.900Z,14.33
2023-05-17T17:22:46.514Z,7.90
2023-05-17T17:25:13.727Z,12.73
2023-05-17T17:27:43.283Z,14.60
2023-05-17T17:30:10.651Z,11.43
2023-05-17T17:32:37.987Z,11.97
2023-05-17T17:35:05.462Z,11.00
2023-05-17T17:37:32.688Z,10.13
2023-05-17T17:39:59.943Z,11.33
2023-05-17T17:42:27.547Z,11.67
2023-05-17T17:44:56.305Z,14.33
2023-05-17T17:47:23.705Z,13.03
2023-05-17T17:49:51.304Z,10.77
2023-05-17T17:52:18.518Z,15.10
2023-05-17T17:54:46.421Z,13.50
2023-05-17T17:57:13.375Z,7.63
2023-05-17T17:59:40.319Z,13.63
2023-05-17T18:02:07.527Z,8.63
2023-05-17T18:04:34.717Z,7.30
2023-05-17T18:07:02.689Z,10.33
2023-05-17T18:09:29.557Z,11.67
2023-05-17T18:11:57.147Z,8.23
2023-05-17T18:14:24.052Z,10.60
2023-05-17T18:16:53.835Z,11.77
2023-05-17T18:19:21.212Z,10.63
2023-05-17T18:21:50.759Z,7.63
2023-05-17T18:24:18.394Z,13.10
2023-05-17T18:26:45.880Z,13.67
2023-05-17T18:29:13.134Z,8.40
2023-05-17T18:31:40.359Z,12.20
2023-05-17T18:34:10.628Z,10.90
2023-05-17T18:36:37.938Z,9.27
2023-05-17T18:39:05.716Z,8.57
2023-05-17T18:41:32.577Z,9.67
2023-05-17T18:44:02.843Z,13.17
2023-05-17T18:46:29.841Z,15.13
2023-05-17T18:48:59.156Z,10.10
2023-05-17T18:51:26.075Z,12.80
2023-05-17T18:53:53.741Z,11.77
2023-05-17T18:56:23.265Z,15.23
2023-05-17T18:58:53.352Z,12.70
2023-05-17T19:01:20.780Z,13.60
2023-05-17T19:03:48.238Z,14.27
2023-05-17T19:06:15.160Z,10.77
2023-05-17T19:08:44.568Z,13.07
2023-05-17T19:11:11.357Z,15.57
2023-05-17T19:13:40.500Z,11.93
2023-05-17T19:16:07.958Z,13.00
2023-05-17T19:18:35.218Z,14.50
2023-05-17T19:21:02.609Z,15.27
2023-05-17T19:23:32.780Z,17.87
2023-05-17T19:26:00.169Z,17.10
2023-05-17T19:28:27.473Z,15.13
2023-05-17T19:30:54.812Z,19.13
2023-05-17T19:33:22.136Z,13.23
2023-05-17T19:35:49.944Z,16.27
2023-05-17T19:38:17.406Z,10.93
2023-05-17T19:40:44.964Z,17.37
2023-05-17T19:43:12.197Z,19.03
2023-05-17T19:45:40.990Z,17.77
2023-05-17T19:48:12.183Z,14.53
2023-05-17T19:50:38.999Z,18.77
2023-05-17T19:53:06.070Z,17.70
2023-05-17T19:55:34.507Z,14.37
2023-05-17T19:58:01.340Z,18.93
2023-05-17T20:00:29.094Z,17.33
2023-05-17T20:02:58.689Z,12.50
2023-05-17T20:05:27.183Z,15.20
2023-05-17T20:07:54.128Z,18.10
2023-05-17T20:10:23.668Z,20.27
2023-05-17T20:12:50.503Z,16.17
2023-05-17T20:15:17.429Z,19.90
2023-05-17T20:17:44.467Z,20.53
2023-05-17T20:20:11.542Z,17.60
2023-05-17T20:22:39.875Z,16.70
2023-05-17T20:25:06.916Z,15.53
2023-05-17T20:27:36.278Z,19.07
2023-05-17T20:30:06.318Z,14.93
2023-05-17T20:32:33.300Z,21.13
2023-05-17T20:35:00.607Z,15.77
2023-05-17T20:37:27.418Z,11.97
2023-05-17T20:39:57.437Z,20.57
2023-05-17T20:42:28.242Z,20.40
2023-05-17T20:44:55.535Z,21.57
2023-05-17T20:47:22.690Z,15.27
2023-05-17T20:49:50.429Z,19.03
2023-05-17T20:52:51.601Z,19.33
2023-05-17T20:58:29.252Z,15.70
2023-05-17T21:00:57.049Z,18.23
2023-05-17T21:03:29.073Z,21.20
2023-05-17T21:05:56.036Z,15.83
2023-05-17T21:08:23.086Z,19.53
2023-05-17T21:10:55.047Z,19.17
2023-05-17T21:13:46.228Z,22.50
2023-05-17T21:16:13.473Z,15.23
2023-05-17T21:18:44.954Z,21.47
2023-05-17T21:21:12.415Z,16.97
2023-05-17T21:23:51.083Z,19.97
2023-05-17T21:26:17.975Z,17.77
2023-05-17T21:28:45.277Z,17.10
2023-05-17T21:31:12.144Z,25.73
2023-05-17T21:33:49.745Z,18.43
2023-05-17T21:36:16.635Z,20.30
2023-05-17T21:38:50.441Z,21.63
2023-05-17T21:41:17.245Z,23.57
2023-05-17T21:43:44.479Z,22.53
2023-05-17T21:46:13.977Z,17.07
2023-05-17T21:48:40.960Z,16.47
2023-05-17T21:51:10.123Z,24.63
2023-05-17T21:54:09.089Z,15.60
2023-05-17T21:56:35.893Z,17.67
2023-05-17T21:59:02.778Z,21.03
2023-05-17T22:01:29.779Z,15.13
2023-05-17T22:04:02.586Z,21.13
2023-05-17T22:06:30.047Z,15.67
2023-05-17T22:08:57.161Z,12.27
2023-05-17T22:11:38.345Z,20.67
2023-05-17T22:14:14.544Z,15.07
2023-05-17T22:16:55.414Z,19.70
2023-05-17T22:19:30.510Z,16.70
2023-05-17T22:21:57.504Z,23.60
2023-05-17T22:24:24.312Z,34.37
2023-05-17T22:26:51.248Z,16.47
2023-05-17T22:29:18.054Z,13.77
2023-05-17T22:31:47.335Z,20.37
2023-05-17T22:34:14.273Z,19.73
2023-05-17T22:36:42.285Z,16.07
2023-05-17T22:39:09.746Z,17.30
2023-05-17T22:41:36.604Z,13.10
2023-05-17T22:44:06.271Z,18.80
2023-05-17T22:46:33.347Z,16.23
2023-05-17T22:49:00.198Z,16.53
2023-05-17T22:51:30.075Z,17.33
2023-05-17T22:53:57.948Z,18.07
2023-05-17T22:56:24.802Z,18.77
2023-05-17T22:58:53.885Z,13.13
2023-05-17T23:01:20.887Z,13.20
2023-05-17T23:03:47.948Z,19.17
2023-05-17T23:06:22.224Z,14.93
2023-05-17T23:08:49.902Z,17.57
2023-05-17T23:11:18.320Z,20.27
2023-05-17T23:13:48.065Z,17.13
2023-05-17T23:16:14.929Z,15.27
2023-05-17T23:18:44.660Z,19.13
2023-05-17T23:21:13.846Z,16.13
2023-05-17T23:23:40.737Z,19.93
2023-05-17T23:26:07.949Z,20.27
2023-05-17T23:28:37.982Z,19.63
2023-05-17T23:31:05.935Z,20.13
2023-05-17T23:33:35.075Z,19.43
2023-05-17T23:36:02.083Z,15.90
2023-05-17T23:38:28.958Z,15.37
2023-05-17T23:40:56.403Z,15.50
2023-05-17T23:43:23.302Z,13.43
2023-05-17T23:45:53.521Z,12.57
2023-05-17T23:48:21.070Z,12.30
2023-05-17T23:50:47.977Z,11.23
2023-05-17T23:53:15.193Z,11.33
2023-05-17T23:55:44.496Z,17.43
2023-05-17T23:58:11.343Z,14.43
